This is the latest recevied weather packets stored in our database for station/object K7DC. If no packets are shown the sender has not sent any weather packets the latest 1 day(s).
| Time | Temp. | Humidity | Pressure | Rain* | Wind** | Luminosity | Snow |
|---|---|---|---|---|---|---|---|
| 1778019765 | 25.56° C | 24% | 1010.9 hPa | 0 mm | 2.68 m/s, 258° | 605 W/m² | - |
| 1778019463 | 25.56° C | 26% | 1010.9 hPa | 0 mm | 2.24 m/s, 260° | 622 W/m² | - |
| 1778019159 | 26.11° C | 24% | 1011.1 hPa | 0 mm | 2.68 m/s, 233° | 638 W/m² | - |
| 1778018856 | 26.67° C | 25% | 1010.9 hPa | 0 mm | 3.13 m/s, 231° | 666 W/m² | - |
| 1778018553 | 26.11° C | 26% | 1010.8 hPa | 0 mm | 4.02 m/s, 240° | 723 W/m² | - |
| 1778018252 | 25.56° C | 26% | 1010.9 hPa | 0 mm | 2.68 m/s, 277° | 727 W/m² | - |
| 1778017949 | 26.11° C | 27% | 1011.2 hPa | 0 mm | 1.79 m/s, 249° | 187 W/m² | - |
| 1778017646 | 25.56° C | 28% | 1011.1 hPa | 0 mm | 2.24 m/s, 253° | 249 W/m² | - |
| 1778017344 | 26.11° C | 28% | 1011.2 hPa | 0 mm | 2.24 m/s, 280° | 793 W/m² | - |
| 1778017041 | 25.56° C | 29% | 1011.2 hPa | 0 mm | 0.89 m/s, 286° | 148 W/m² | - |
| 1778016738 | 25.56° C | 30% | 1011.4 hPa | 0 mm | 2.68 m/s, 240° | 815 W/m² | - |
| 1778016434 | 26.11° C | 28% | 1011.3 hPa | 0 mm | 2.68 m/s, 263° | 186 W/m² | - |
| 1778016132 | 25.56° C | 29% | 1011.3 hPa | 0 mm | 2.68 m/s, 270° | 883 W/m² | - |
| 1778015828 | 26.67° C | 28% | 1011.1 hPa | 0 mm | 2.68 m/s, 291° | 822 W/m² | - |
| 1778015526 | 26.11° C | 29% | 1011.5 hPa | 0 mm | 3.13 m/s, 265° | 865 W/m² | - |
| 1778015222 | 25.56° C | 30% | 1011.3 hPa | 0 mm | 3.58 m/s, 246° | 873 W/m² | - |
| 1778014919 | 25° C | 32% | 1011.4 hPa | 0 mm | 0.89 m/s, 274° | 167 W/m² | - |
| 1778014616 | 25° C | 32% | 1011.4 hPa | 0 mm | 1.79 m/s, 272° | 219 W/m² | - |
| 1778014314 | 25° C | 33% | 1011.3 hPa | 0 mm | 2.24 m/s, 254° | 707 W/m² | - |
| 1778014011 | 25.56° C | 33% | 1011.6 hPa | 0 mm | 1.79 m/s, 279° | 160 W/m² | - |
| 1778013709 | 25° C | 32% | 1011.3 hPa | 0 mm | 3.13 m/s, 293° | 992 W/m² | - |
| 1778013406 | 25° C | 32% | 1011.7 hPa | 0 mm | 4.02 m/s, 268° | 222 W/m² | - |
| 1778013102 | 23.89° C | 35% | 1011.6 hPa | 0 mm | 1.79 m/s, 240° | 821 W/m² | - |
| 1778012798 | 25° C | 33% | 1011.6 hPa | 0 mm | 4.02 m/s, 219° | 185 W/m² | - |
| 1778012494 | 25° C | 33% | 1011.6 hPa | 0 mm | 3.13 m/s, 275° | 1045 W/m² | - |
* Rain latest hour (hover to see other rain measurements)
** Current wind speed in m/s (hover to see current wind gust speed)